sensor_id;sensor_type;location;lat;lon;timestamp;pressure;altitude;pressure_sealevel;temperature;humidity
6599;BME280;3335;43.198;27.918;2023-04-01T00:01:57;149241.69;;;7.89;100.00
6599;BME280;3335;43.198;27.918;2023-04-01T00:04:24;149257.91;;;7.96;100.00
6599;BME280;3335;43.198;27.918;2023-04-01T00:06:51;149266.63;;;8.00;100.00
6599;BME280;3335;43.198;27.918;2023-04-01T00:09:18;149235.47;;;7.87;100.00
6599;BME280;3335;43.198;27.918;2023-04-01T00:11:45;149284.09;;;8.07;100.00
6599;BME280;3335;43.198;27.918;2023-04-01T00:14:12;149296.56;;;8.12;100.00
6599;BME280;3335;43.198;27.918;2023-04-01T00:16:39;149285.38;;;8.07;100.00
6599;BME280;3335;43.198;27.918;2023-04-01T00:19:07;149290.31;;;8.09;100.00
6599;BME280;3335;43.198;27.918;2023-04-01T00:21:34;149289.06;;;8.09;100.00
6599;BME280;3335;43.198;27.918;2023-04-01T00:24:02;149286.59;;;8.08;100.00
6599;BME280;3335;43.198;27.918;2023-04-01T00:26:29;149284.09;;;8.07;100.00
6599;BME280;3335;43.198;27.918;2023-04-01T00:28:56;149281.59;;;8.06;100.00
6599;BME280;3335;43.198;27.918;2023-04-01T00:31:23;149284.09;;;8.07;100.00
6599;BME280;3335;43.198;27.918;2023-04-01T00:33:51;149280.34;;;8.05;100.00
6599;BME280;3335;43.198;27.918;2023-04-01T00:36:21;149280.34;;;8.05;100.00
6599;BME280;3335;43.198;27.918;2023-04-01T00:38:48;149266.63;;;8.00;100.00
6599;BME280;3335;43.198;27.918;2023-04-01T00:41:16;149214.28;;;7.78;100.00
6599;BME280;3335;43.198;27.918;2023-04-01T00:43:44;149221.75;;;7.81;100.00
6599;BME280;3335;43.198;27.918;2023-04-01T00:46:12;149204.34;;;7.74;100.00
6599;BME280;3335;43.198;27.918;2023-04-01T00:48:41;149201.84;;;7.73;100.00
6599;BME280;3335;43.198;27.918;2023-04-01T00:51:10;149189.38;;;7.68;100.00
6599;BME280;3335;43.198;27.918;2023-04-01T00:53:41;149181.84;;;7.65;100.00
6599;BME280;3335;43.198;27.918;2023-04-01T00:56:12;149171.88;;;7.61;100.00
6599;BME280;3335;43.198;27.918;2023-04-01T00:58:43;149164.44;;;7.58;100.00
6599;BME280;3335;43.198;27.918;2023-04-01T01:01:10;149132.03;;;7.45;100.00
6599;BME280;3335;43.198;27.918;2023-04-01T01:03:37;149084.69;;;7.26;100.00
6599;BME280;3335;43.198;27.918;2023-04-01T01:06:10;149103.34;;;7.33;100.00
6599;BME280;3335;43.198;27.918;2023-04-01T01:08:58;149124.53;;;7.42;100.00
6599;BME280;3335;43.198;27.918;2023-04-01T01:11:36;149118.31;;;7.39;100.00
6599;BME280;3335;43.198;27.918;2023-04-01T01:14:12;149109.59;;;7.36;100.00
6599;BME280;3335;43.198;27.918;2023-04-01T01:16:44;149089.63;;;7.28;100.00
6599;BME280;3335;43.198;27.918;2023-04-01T01:19:30;149097.16;;;7.31;100.00
6599;BME280;3335;43.198;27.918;2023-04-01T01:22:23;149082.19;;;7.25;100.00
6599;BME280;3335;43.198;27.918;2023-04-01T01:25:12;149100.84;;;7.32;100.00
6599;BME280;3335;43.198;27.918;2023-04-01T01:27:46;149112.06;;;7.37;100.00
6599;BME280;3335;43.198;27.918;2023-04-01T01:30:28;149124.53;;;7.42;100.00
6599;BME280;3335;43.198;27.918;2023-04-01T01:33:21;149132.03;;;7.45;100.00
6599;BME280;3335;43.198;27.918;2023-04-01T01:35:53;149129.53;;;7.44;100.00
6599;BME280;3335;43.198;27.918;2023-04-01T01:38:23;149133.28;;;7.45;100.00
6599;BME280;3335;43.198;27.918;2023-04-01T01:40:55;149127.03;;;7.43;100.00
6599;BME280;3335;43.198;27.918;2023-04-01T01:43:25;149109.59;;;7.36;100.00
6599;BME280;3335;43.198;27.918;2023-04-01T01:45:54;149093.38;;;7.29;100.00
6599;BME280;3335;43.198;27.918;2023-04-01T01:48:24;149108.34;;;7.35;100.00
6599;BME280;3335;43.198;27.918;2023-04-01T01:50:53;149129.53;;;7.44;100.00
6599;BME280;3335;43.198;27.918;2023-04-01T01:53:20;149134.50;;;7.46;100.00
6599;BME280;3335;43.198;27.918;2023-04-01T01:55:47;149163.19;;;7.58;100.00
6599;BME280;3335;43.198;27.918;2023-04-01T01:58:18;149165.69;;;7.59;100.00
6599;BME280;3335;43.198;27.918;2023-04-01T02:00:50;149149.47;;;7.52;100.00
6599;BME280;3335;43.198;27.918;2023-04-01T02:03:21;149142.00;;;7.49;100.00
6599;BME280;3335;43.198;27.918;2023-04-01T02:05:51;149123.28;;;7.41;100.00
6599;BME280;3335;43.198;27.918;2023-04-01T02:08:22;149146.94;;;7.51;100.00
6599;BME280;3335;43.198;27.918;2023-04-01T02:10:56;149171.88;;;7.61;100.00
6599;BME280;3335;43.198;27.918;2023-04-01T02:13:29;149176.91;;;7.63;100.00
6599;BME280;3335;43.198;27.918;2023-04-01T02:16:01;149166.94;;;7.59;100.00
6599;BME280;3335;43.198;27.918;2023-04-01T02:18:30;149174.38;;;7.62;100.00
6599;BME280;3335;43.198;27.918;2023-04-01T02:21:00;149119.56;;;7.40;100.00
6599;BME280;3335;43.198;27.918;2023-04-01T02:23:29;149171.88;;;7.61;100.00
6599;BME280;3335;43.198;27.918;2023-04-01T02:25:56;149178.16;;;7.64;100.00
6599;BME280;3335;43.198;27.918;2023-04-01T02:28:23;149134.50;;;7.46;100.00
6599;BME280;3335;43.198;27.918;2023-04-01T02:30:51;149084.69;;;7.26;100.00
6599;BME280;3335;43.198;27.918;2023-04-01T02:33:19;149089.63;;;7.28;100.00
6599;BME280;3335;43.198;27.918;2023-04-01T02:35:47;149099.59;;;7.32;100.00
6599;BME280;3335;43.198;27.918;2023-04-01T02:38:14;149099.59;;;7.32;100.00
6599;BME280;3335;43.198;27.918;2023-04-01T02:40:48;149084.69;;;7.26;100.00
6599;BME280;3335;43.198;27.918;2023-04-01T02:43:15;149100.84;;;7.32;100.00
6599;BME280;3335;43.198;27.918;2023-04-01T02:45:44;149110.84;;;7.36;100.00
6599;BME280;3335;43.198;27.918;2023-04-01T02:48:11;149100.84;;;7.32;100.00
6599;BME280;3335;43.198;27.918;2023-04-01T02:50:38;149109.59;;;7.36;100.00
6599;BME280;3335;43.198;27.918;2023-04-01T02:53:05;149109.59;;;7.36;100.00
6599;BME280;3335;43.198;27.918;2023-04-01T02:55:32;149118.31;;;7.39;100.00
6599;BME280;3335;43.198;27.918;2023-04-01T02:58:01;148529.38;;;5.00;100.00
6599;BME280;3335;43.198;27.918;2023-04-01T03:00:28;149097.16;;;7.31;100.00
6599;BME280;3335;43.198;27.918;2023-04-01T03:02:55;149112.06;;;7.37;100.00
6599;BME280;3335;43.198;27.918;2023-04-01T03:05:22;149117.06;;;7.39;100.00
6599;BME280;3335;43.198;27.918;2023-04-01T03:07:50;149095.88;;;7.30;100.00
6599;BME280;3335;43.198;27.918;2023-04-01T03:10:17;149149.47;;;7.52;100.00
6599;BME280;3335;43.198;27.918;2023-04-01T03:12:44;149003.69;;;6.93;100.00
6599;BME280;3335;43.198;27.918;2023-04-01T03:15:13;149118.31;;;7.39;100.00
6599;BME280;3335;43.198;27.918;2023-04-01T03:17:41;149149.47;;;7.52;100.00
6599;BME280;3335;43.198;27.918;2023-04-01T03:20:09;149143.25;;;7.50;100.00
6599;BME280;3335;43.198;27.918;2023-04-01T03:22:37;149139.50;;;7.48;100.00
6599;BME280;3335;43.198;27.918;2023-04-01T03:25:05;149144.50;;;7.50;100.00
6599;BME280;3335;43.198;27.918;2023-04-01T03:27:33;149148.22;;;7.52;100.00
6599;BME280;3335;43.198;27.918;2023-04-01T03:30:00;149149.47;;;7.52;100.00
6599;BME280;3335;43.198;27.918;2023-04-01T03:32:29;148990.00;;;6.87;100.00
6599;BME280;3335;43.198;27.918;2023-04-01T03:34:56;149158.16;;;7.56;100.00
6599;BME280;3335;43.198;27.918;2023-04-01T03:37:23;149161.94;;;7.57;100.00
6599;BME280;3335;43.198;27.918;2023-04-01T03:39:50;149169.44;;;7.60;100.00
6599;BME280;3335;43.198;27.918;2023-04-01T03:42:17;149151.97;;;7.53;100.00
6599;BME280;3335;43.198;27.918;2023-04-01T03:44:44;149149.47;;;7.52;100.00
6599;BME280;3335;43.198;27.918;2023-04-01T03:47:11;149139.50;;;7.48;100.00
6599;BME280;3335;43.198;27.918;2023-04-01T03:49:40;149029.81;;;7.03;100.00
6599;BME280;3335;43.198;27.918;2023-04-01T03:52:09;149143.25;;;7.50;100.00
6599;BME280;3335;43.198;27.918;2023-04-01T03:54:37;149134.50;;;7.46;100.00
6599;BME280;3335;43.198;27.918;2023-04-01T03:57:04;149150.72;;;7.53;100.00
6599;BME280;3335;43.198;27.918;2023-04-01T03:59:31;149186.84;;;7.67;100.00
6599;BME280;3335;43.198;27.918;2023-04-01T04:01:58;149205.53;;;7.75;100.00
6599;BME280;3335;43.198;27.918;2023-04-01T04:04:25;149213.03;;;7.78;100.00
6599;BME280;3335;43.198;27.918;2023-04-01T04:06:54;149216.75;;;7.79;100.00
6599;BME280;3335;43.198;27.918;2023-04-01T04:09:20;149237.97;;;7.88;100.00
6599;BME280;3335;43.198;27.918;2023-04-01T04:11:47;149241.69;;;7.89;100.00
6599;BME280;3335;43.198;27.918;2023-04-01T04:14:14;149254.16;;;7.95;100.00
6599;BME280;3335;43.198;27.918;2023-04-01T04:16:41;149244.19;;;7.90;100.00
6599;BME280;3335;43.198;27.918;2023-04-01T04:19:09;149291.56;;;8.10;100.00
6599;BME280;3335;43.198;27.918;2023-04-01T04:21:36;149296.56;;;8.12;100.00
6599;BME280;3335;43.198;27.918;2023-04-01T04:24:05;149316.50;;;8.20;100.00
6599;BME280;3335;43.198;27.918;2023-04-01T04:26:32;149337.72;;;8.28;100.00
6599;BME280;3335;43.198;27.918;2023-04-01T04:28:59;149341.50;;;8.30;100.00
6599;BME280;3335;43.198;27.918;2023-04-01T04:31:26;149329.00;;;8.25;100.00
6599;BME280;3335;43.198;27.918;2023-04-01T04:33:54;149381.38;;;8.46;100.00
6599;BME280;3335;43.198;27.918;2023-04-01T04:36:21;149386.41;;;8.48;100.00
6599;BME280;3335;43.198;27.918;2023-04-01T04:38:48;149403.88;;;8.55;100.00
6599;BME280;3335;43.198;27.918;2023-04-01T04:41:18;149428.78;;;8.65;100.00
6599;BME280;3335;43.198;27.918;2023-04-01T04:43:50;149441.25;;;8.70;100.00
6599;BME280;3335;43.198;27.918;2023-04-01T04:46:17;149441.25;;;8.70;100.00
6599;BME280;3335;43.198;27.918;2023-04-01T04:48:44;149451.25;;;8.74;100.00
6599;BME280;3335;43.198;27.918;2023-04-01T04:51:14;149315.25;;;8.19;100.00
6599;BME280;3335;43.198;27.918;2023-04-01T04:53:41;149413.84;;;8.59;100.00
6599;BME280;3335;43.198;27.918;2023-04-01T04:56:08;149461.25;;;8.78;100.00
6599;BME280;3335;43.198;27.918;2023-04-01T04:58:37;149448.78;;;8.73;100.00
6599;BME280;3335;43.198;27.918;2023-04-01T05:01:09;149436.31;;;8.68;100.00
6599;BME280;3335;43.198;27.918;2023-04-01T05:03:36;149457.50;;;8.77;100.00
6599;BME280;3335;43.198;27.918;2023-04-01T05:06:04;149455.00;;;8.76;100.00
6599;BME280;3335;43.198;27.918;2023-04-01T05:08:32;149452.50;;;8.75;100.00
6599;BME280;3335;43.198;27.918;2023-04-01T05:10:59;149321.53;;;8.22;100.00
6599;BME280;3335;43.198;27.918;2023-04-01T05:13:26;149426.34;;;8.64;100.00
6599;BME280;3335;43.198;27.918;2023-04-01T05:15:55;149447.53;;;8.73;100.00
6599;BME280;3335;43.198;27.918;2023-04-01T05:18:22;149446.28;;;8.72;100.00
6599;BME280;3335;43.198;27.918;2023-04-01T05:20:50;149476.19;;;8.85;100.00
6599;BME280;3335;43.198;27.918;2023-04-01T05:23:17;149496.19;;;8.93;100.00
6599;BME280;3335;43.198;27.918;2023-04-01T05:25:46;149526.13;;;9.05;100.00
6599;BME280;3335;43.198;27.918;2023-04-01T05:28:14;149546.06;;;9.13;100.00
6599;BME280;3335;43.198;27.918;2023-04-01T05:30:41;149576.03;;;9.25;100.00
6599;BME280;3335;43.198;27.918;2023-04-01T05:33:11;149601.00;;;9.35;100.00
6599;BME280;3335;43.198;27.918;2023-04-01T05:35:39;149615.94;;;9.41;100.00
6599;BME280;3335;43.198;27.918;2023-04-01T05:38:06;149614.75;;;9.41;100.00
6599;BME280;3335;43.198;27.918;2023-04-01T05:40:33;149675.88;;;9.65;100.00
6599;BME280;3335;43.198;27.918;2023-04-01T05:43:00;149704.59;;;9.77;100.00
6599;BME280;3335;43.198;27.918;2023-04-01T05:45:27;149588.53;;;9.30;100.00
6599;BME280;3335;43.198;27.918;2023-04-01T05:47:54;149740.81;;;9.92;100.00
6599;BME280;3335;43.198;27.918;2023-04-01T05:50:22;149738.31;;;9.91;100.00
6599;BME280;3335;43.198;27.918;2023-04-01T05:52:49;149789.53;;;10.12;100.00
6599;BME280;3335;43.198;27.918;2023-04-01T05:55:16;149828.25;;;10.27;100.00
6599;BME280;3335;43.198;27.918;2023-04-01T05:57:44;149888.22;;;10.51;100.00
6599;BME280;3335;43.198;27.918;2023-04-01T06:00:12;149940.69;;;10.73;100.00
6599;BME280;3335;43.198;27.918;2023-04-01T06:02:39;150006.91;;;11.00;100.00
6599;BME280;3335;43.198;27.918;2023-04-01T06:05:13;150076.88;;;11.28;100.00
6599;BME280;3335;43.198;27.918;2023-04-01T06:07:43;150128.16;;;11.49;100.00
6599;BME280;3335;43.198;27.918;2023-04-01T06:10:13;150121.88;;;11.46;100.00
6599;BME280;3335;43.198;27.918;2023-04-01T06:12:47;150121.88;;;11.46;100.00
6599;BME280;3335;43.198;27.918;2023-04-01T06:15:22;150130.66;;;11.50;100.00
6599;BME280;3335;43.198;27.918;2023-04-01T06:20:44;150175.66;;;11.68;100.00
6599;BME280;3335;43.198;27.918;2023-04-01T06:23:33;150188.22;;;11.73;100.00
6599;BME280;3335;43.198;27.918;2023-04-01T06:26:11;150165.66;;;11.64;100.00
6599;BME280;3335;43.198;27.918;2023-04-01T06:31:44;150134.38;;;11.51;100.00
6599;BME280;3335;43.198;27.918;2023-04-01T06:34:56;150138.16;;;11.53;100.00
6599;BME280;3335;43.198;27.918;2023-04-01T06:37:43;150149.38;;;11.57;100.00
6599;BME280;3335;43.198;27.918;2023-04-01T06:40:43;150134.38;;;11.51;100.00
6599;BME280;3335;43.198;27.918;2023-04-01T06:43:21;150125.63;;;11.48;100.00
6599;BME280;3335;43.198;27.918;2023-04-01T06:45:57;150109.38;;;11.41;100.00
6599;BME280;3335;43.198;27.918;2023-04-01T06:48:41;150093.16;;;11.34;100.00
6599;BME280;3335;43.198;27.918;2023-04-01T06:51:21;150113.13;;;11.43;100.00
6599;BME280;3335;43.198;27.918;2023-04-01T06:53:55;150125.63;;;11.48;100.00
6599;BME280;3335;43.198;27.918;2023-04-01T06:56:29;150139.41;;;11.53;100.00
6599;BME280;3335;43.198;27.918;2023-04-01T06:58:58;150141.91;;;11.54;100.00
6599;BME280;3335;43.198;27.918;2023-04-01T07:01:32;150178.16;;;11.69;100.00
6599;BME280;3335;43.198;27.918;2023-04-01T07:04:02;150213.22;;;11.83;100.00
6599;BME280;3335;43.198;27.918;2023-04-01T07:06:35;150253.22;;;11.99;100.00
6599;BME280;3335;43.198;27.918;2023-04-01T07:09:06;150265.72;;;12.04;100.00
6599;BME280;3335;43.198;27.918;2023-04-01T07:11:38;150270.75;;;12.06;100.00
6599;BME280;3335;43.198;27.918;2023-04-01T07:14:12;150317.00;;;12.25;100.00
6599;BME280;3335;43.198;27.918;2023-04-01T07:16:43;150354.50;;;12.40;100.00
6599;BME280;3335;43.198;27.918;2023-04-01T07:19:16;150378.25;;;12.50;100.00
6599;BME280;3335;43.198;27.918;2023-04-01T07:21:48;150340.78;;;12.35;100.00
6599;BME280;3335;43.198;27.918;2023-04-01T07:24:21;150374.53;;;12.48;100.00
6599;BME280;3335;43.198;27.918;2023-04-01T07:26:54;150328.25;;;12.30;100.00
6599;BME280;3335;43.198;27.918;2023-04-01T07:29:22;150288.22;;;12.13;100.00
6599;BME280;3335;43.198;27.918;2023-04-01T07:34:49;150265.72;;;12.04;100.00
6599;BME280;3335;43.198;27.918;2023-04-01T07:37:22;150265.72;;;12.04;100.00
6599;BME280;3335;43.198;27.918;2023-04-01T07:40:02;150260.69;;;12.02;100.00
6599;BME280;3335;43.198;27.918;2023-04-01T07:42:44;150280.72;;;12.10;100.00
6599;BME280;3335;43.198;27.918;2023-04-01T07:45:20;150278.22;;;12.09;100.00
6599;BME280;3335;43.198;27.918;2023-04-01T07:48:00;150311.97;;;12.23;100.00
6599;BME280;3335;43.198;27.918;2023-04-01T07:50:32;150322.00;;;12.27;100.00
6599;BME280;3335;43.198;27.918;2023-04-01T07:53:08;150328.25;;;12.30;100.00
6599;BME280;3335;43.198;27.918;2023-04-01T07:55:46;150340.78;;;12.35;100.00
6599;BME280;3335;43.198;27.918;2023-04-01T07:58:23;150380.78;;;12.51;100.00
6599;BME280;3335;43.198;27.918;2023-04-01T08:00:58;150350.78;;;12.39;100.00
6599;BME280;3335;43.198;27.918;2023-04-01T08:03:41;150405.81;;;12.61;100.00
6599;BME280;3335;43.198;27.918;2023-04-01T08:06:15;150404.56;;;12.60;100.00
6599;BME280;3335;43.198;27.918;2023-04-01T08:08:52;150398.31;;;12.58;100.00
6599;BME280;3335;43.198;27.918;2023-04-01T08:11:35;150458.38;;;12.82;100.00
6599;BME280;3335;43.198;27.918;2023-04-01T08:14:12;150510.91;;;13.03;100.00
6599;BME280;3335;43.198;27.918;2023-04-01T08:16:46;150468.38;;;12.86;100.00
6599;BME280;3335;43.198;27.918;2023-04-01T08:19:25;150443.34;;;12.76;100.00
6599;BME280;3335;43.198;27.918;2023-04-01T08:21:58;150464.59;;;12.85;100.00
6599;BME280;3335;43.198;27.918;2023-04-01T08:24:35;150453.34;;;12.80;100.00
6599;BME280;3335;43.198;27.918;2023-04-01T08:27:11;150473.34;;;12.88;100.00
6599;BME280;3335;43.198;27.918;2023-04-01T08:29:46;150498.38;;;12.98;100.00
6599;BME280;3335;43.198;27.918;2023-04-01T08:32:17;150524.69;;;13.09;100.00
6599;BME280;3335;43.198;27.918;2023-04-01T08:34:50;150553.53;;;13.21;100.00
6599;BME280;3335;43.198;27.918;2023-04-01T08:37:25;150568.53;;;13.27;100.00
6599;BME280;3335;43.198;27.918;2023-04-01T08:39:58;150582.31;;;13.32;100.00
6599;BME280;3335;43.198;27.918;2023-04-01T08:42:49;150599.84;;;13.39;100.00
6599;BME280;3335;43.198;27.918;2023-04-01T08:45:37;150617.34;;;13.46;100.00
6599;BME280;3335;43.198;27.918;2023-04-01T08:48:48;150591.06;;;13.36;100.00
6599;BME280;3335;43.198;27.918;2023-04-01T08:54:43;150493.41;;;12.96;100.00
6599;BME280;3335;43.198;27.918;2023-04-01T08:57:18;150608.59;;;13.43;100.00
6599;BME280;3335;43.198;27.918;2023-04-01T08:59:56;150606.09;;;13.42;100.00
6599;BME280;3335;43.198;27.918;2023-04-01T09:02:49;150663.66;;;13.65;100.00
6599;BME280;3335;43.198;27.918;2023-04-01T09:05:47;150743.81;;;13.97;100.00
6599;BME280;3335;43.198;27.918;2023-04-01T09:08:32;150721.25;;;13.88;100.00
6599;BME280;3335;43.198;27.918;2023-04-01T09:11:12;150737.56;;;13.95;100.00
6599;BME280;3335;43.198;27.918;2023-04-01T09:17:19;150746.31;;;13.98;100.00
6599;BME280;3335;43.198;27.918;2023-04-01T09:20:17;150732.53;;;13.93;100.00
6599;BME280;3335;43.198;27.918;2023-04-01T09:22:54;150770.13;;;14.08;100.00
6599;BME280;3335;43.198;27.918;2023-04-01T09:25:38;150793.91;;;14.18;100.00
6599;BME280;3335;43.198;27.918;2023-04-01T09:28:16;150826.47;;;14.31;100.00
6599;BME280;3335;43.198;27.918;2023-04-01T09:34:01;150792.66;;;14.17;100.00
6599;BME280;3335;43.198;27.918;2023-04-01T09:36:43;150801.41;;;14.21;100.00
6599;BME280;3335;43.198;27.918;2023-04-01T09:39:29;150773.88;;;14.10;100.00
6599;BME280;3335;43.198;27.918;2023-04-01T09:42:14;150706.28;;;13.82;100.00
6599;BME280;3335;43.198;27.918;2023-04-01T09:44:45;150698.72;;;13.79;100.00
6599;BME280;3335;43.198;27.918;2023-04-01T09:47:32;150676.19;;;13.70;100.00
6599;BME280;3335;43.198;27.918;2023-04-01T09:50:16;150721.25;;;13.88;100.00
6599;BME280;3335;43.198;27.918;2023-04-01T09:52:55;150609.84;;;13.43;100.00
6599;BME280;3335;43.198;27.918;2023-04-01T09:58:52;150678.72;;;13.71;100.00
6599;BME280;3335;43.198;27.918;2023-04-01T10:05:04;150701.25;;;13.80;100.00
6599;BME280;3335;43.198;27.918;2023-04-01T10:08:08;150701.25;;;13.80;100.00
6599;BME280;3335;43.198;27.918;2023-04-01T10:11:15;150691.22;;;13.76;100.00
6599;BME280;3335;43.198;27.918;2023-04-01T10:14:19;150653.66;;;13.61;100.00
6599;BME280;3335;43.198;27.918;2023-04-01T10:17:05;150593.56;;;13.37;100.00
6599;BME280;3335;43.198;27.918;2023-04-01T10:19:55;150561.03;;;13.24;100.00
6599;BME280;3335;43.198;27.918;2023-04-01T10:23:01;150536.00;;;13.13;100.00
6599;BME280;3335;43.198;27.918;2023-04-01T10:25:45;150543.50;;;13.17;100.00
6599;BME280;3335;43.198;27.918;2023-04-01T10:34:41;150651.16;;;13.60;100.00
6599;BME280;3335;43.198;27.918;2023-04-01T10:37:23;150681.22;;;13.72;100.00
6599;BME280;3335;43.198;27.918;2023-04-01T10:40:20;150668.69;;;13.67;100.00
6599;BME280;3335;43.198;27.918;2023-04-01T10:46:13;150671.22;;;13.68;100.00
6599;BME280;3335;43.198;27.918;2023-04-01T10:52:38;150736.31;;;13.94;100.00
6599;BME280;3335;43.198;27.918;2023-04-01T10:55:32;150793.91;;;14.18;100.00
6599;BME280;3335;43.198;27.918;2023-04-01T11:04:31;150812.72;;;14.25;100.00
6599;BME280;3335;43.198;27.918;2023-04-01T11:07:50;150768.84;;;14.08;100.00
6599;BME280;3335;43.198;27.918;2023-04-01T11:11:03;150721.25;;;13.88;100.00
6599;BME280;3335;43.198;27.918;2023-04-01T11:14:06;150701.25;;;13.80;100.00
6599;BME280;3335;43.198;27.918;2023-04-01T11:17:09;150678.72;;;13.71;100.00
6599;BME280;3335;43.198;27.918;2023-04-01T11:20:16;150736.31;;;13.94;100.00
6599;BME280;3335;43.198;27.918;2023-04-01T11:23:17;150805.19;;;14.22;100.00
6599;BME280;3335;43.198;27.918;2023-04-01T11:26:00;150802.66;;;14.21;100.00
6599;BME280;3335;43.198;27.918;2023-04-01T11:31:54;150820.22;;;14.28;100.00
6599;BME280;3335;43.198;27.918;2023-04-01T11:34:41;150786.41;;;14.15;100.00
6599;BME280;3335;43.198;27.918;2023-04-01T11:37:22;150805.19;;;14.22;100.00
6599;BME280;3335;43.198;27.918;2023-04-01T11:40:03;150826.47;;;14.31;100.00
6599;BME280;3335;43.198;27.918;2023-04-01T11:42:40;150861.59;;;14.45;100.00
6599;BME280;3335;43.198;27.918;2023-04-01T11:45:20;150846.59;;;14.39;100.00
6599;BME280;3335;43.198;27.918;2023-04-01T11:48:11;150906.72;;;14.63;100.00
6599;BME280;3335;43.198;27.918;2023-04-01T11:50:53;151022.00;;;15.10;100.00
6599;BME280;3335;43.198;27.918;2023-04-01T11:53:32;151102.22;;;15.42;100.00
6599;BME280;3335;43.198;27.918;2023-04-01T11:56:11;151132.34;;;15.54;100.00
6599;BME280;3335;43.198;27.918;2023-04-01T11:58:58;151107.25;;;15.44;100.00
6599;BME280;3335;43.198;27.918;2023-04-01T12:01:40;151054.59;;;15.23;100.00
6599;BME280;3335;43.198;27.918;2023-04-01T12:04:38;151006.94;;;15.04;100.00
6599;BME280;3335;43.198;27.918;2023-04-01T12:07:21;151004.44;;;15.03;100.00
6599;BME280;3335;43.198;27.918;2023-04-01T12:09:58;151009.47;;;15.05;100.00
6599;BME280;3335;43.198;27.918;2023-04-01T12:12:33;150974.38;;;14.91;100.00
6599;BME280;3335;43.198;27.918;2023-04-01T12:15:16;150961.84;;;14.85;100.00
6599;BME280;3335;43.198;27.918;2023-04-01T12:17:48;150954.34;;;14.82;100.00
6599;BME280;3335;43.198;27.918;2023-04-01T12:20:34;150940.56;;;14.77;100.00
6599;BME280;3335;43.198;27.918;2023-04-01T12:23:17;150936.78;;;14.75;100.00
6599;BME280;3335;43.198;27.918;2023-04-01T12:26:15;150939.28;;;14.76;100.00
6599;BME280;3335;43.198;27.918;2023-04-01T12:28:59;150931.75;;;14.73;100.00
6599;BME280;3335;43.198;27.918;2023-04-01T12:31:40;150956.81;;;14.83;100.00
6599;BME280;3335;43.198;27.918;2023-04-01T12:34:40;150969.34;;;14.88;100.00
6599;BME280;3335;43.198;27.918;2023-04-01T12:37:18;150975.63;;;14.91;100.00
6599;BME280;3335;43.198;27.918;2023-04-01T12:40:06;150959.34;;;14.84;100.00
6599;BME280;3335;43.198;27.918;2023-04-01T12:42:53;150931.75;;;14.73;100.00
6599;BME280;3335;43.198;27.918;2023-04-01T12:45:31;150859.13;;;14.44;100.00
6599;BME280;3335;43.198;27.918;2023-04-01T12:48:21;150909.19;;;14.64;100.00
6599;BME280;3335;43.198;27.918;2023-04-01T12:51:24;150847.84;;;14.39;100.00
6599;BME280;3335;43.198;27.918;2023-04-01T12:56:54;150708.75;;;13.83;100.00
6599;BME280;3335;43.198;27.918;2023-04-01T12:59:43;150652.41;;;13.61;100.00
6599;BME280;3335;43.198;27.918;2023-04-01T13:02:25;150623.63;;;13.49;100.00
6599;BME280;3335;43.198;27.918;2023-04-01T13:05:18;150643.66;;;13.57;100.00
6599;BME280;3335;43.198;27.918;2023-04-01T13:08:07;150460.84;;;12.83;100.00
6599;BME280;3335;43.198;27.918;2023-04-01T13:11:02;150628.63;;;13.51;100.00
6599;BME280;3335;43.198;27.918;2023-04-01T13:13:44;150608.59;;;13.43;100.00
6599;BME280;3335;43.198;27.918;2023-04-01T13:16:16;150563.53;;;13.25;100.00
6599;BME280;3335;43.198;27.918;2023-04-01T13:18:57;150578.53;;;13.31;100.00
6599;BME280;3335;43.198;27.918;2023-04-01T13:21:34;150574.81;;;13.29;100.00
6599;BME280;3335;43.198;27.918;2023-04-01T13:24:11;150547.25;;;13.18;100.00
6599;BME280;3335;43.198;27.918;2023-04-01T13:26:55;150522.16;;;13.08;100.00
6599;BME280;3335;43.198;27.918;2023-04-01T13:29:26;150499.66;;;12.99;100.00
6599;BME280;3335;43.198;27.918;2023-04-01T13:32:19;150546.00;;;13.18;100.00
6599;BME280;3335;43.198;27.918;2023-04-01T13:35:03;150589.78;;;13.35;100.00
6599;BME280;3335;43.198;27.918;2023-04-01T13:37:42;150623.63;;;13.49;100.00
6599;BME280;3335;43.198;27.918;2023-04-01T13:40:24;150642.41;;;13.56;100.00
6599;BME280;3335;43.198;27.918;2023-04-01T13:42:58;150618.59;;;13.47;100.00
6599;BME280;3335;43.198;27.918;2023-04-01T13:45:34;150750.09;;;14.00;100.00
6599;BME280;3335;43.198;27.918;2023-04-01T13:48:40;150778.88;;;14.12;100.00
6599;BME280;3335;43.198;27.918;2023-04-01T13:51:22;150811.47;;;14.25;100.00
6599;BME280;3335;43.198;27.918;2023-04-01T13:54:14;150841.56;;;14.37;100.00
6599;BME280;3335;43.198;27.918;2023-04-01T13:56:50;150772.63;;;14.09;100.00
6599;BME280;3335;43.198;27.918;2023-04-01T13:59:54;150941.81;;;14.77;100.00
6599;BME280;3335;43.198;27.918;2023-04-01T14:02:49;150991.91;;;14.98;100.00
6599;BME280;3335;43.198;27.918;2023-04-01T14:05:36;150994.41;;;14.99;100.00
6599;BME280;3335;43.198;27.918;2023-04-01T14:08:14;150961.84;;;14.85;100.00
6599;BME280;3335;43.198;27.918;2023-04-01T14:10:48;150939.28;;;14.76;100.00
6599;BME280;3335;43.198;27.918;2023-04-01T14:13:25;150778.88;;;14.12;100.00
6599;BME280;3335;43.198;27.918;2023-04-01T14:16:12;150894.19;;;14.58;100.00
6599;BME280;3335;43.198;27.918;2023-04-01T14:18:57;150874.13;;;14.50;100.00
6599;BME280;3335;43.198;27.918;2023-04-01T14:21:34;150834.00;;;14.34;100.00
6599;BME280;3335;43.198;27.918;2023-04-01T14:24:22;150801.41;;;14.21;100.00
6599;BME280;3335;43.198;27.918;2023-04-01T14:27:21;150798.94;;;14.20;100.00
6599;BME280;3335;43.198;27.918;2023-04-01T14:30:10;150768.84;;;14.08;100.00
6599;BME280;3335;43.198;27.918;2023-04-01T14:32:51;150805.19;;;14.22;100.00
6599;BME280;3335;43.198;27.918;2023-04-01T14:35:37;150792.66;;;14.17;100.00